Time;durP1;ratioP1;P1;durP2;ratioP2;P2;SDS_P1;SDS_P2;PMS_P1;PMS_P2;Temp;Humidity;BMP_temperature;BMP_pressure;BME280_temperature;BME280_humidity;BME280_pressure;Samples;Min_cycle;Max_cycle;Signal;HPM_P1;HPM_P2
2023/04/04 00:00:30;;;;;;;5.77;2.40;;;;;;;10.98;36.59;103124.81;5071779;28;20035;-68
2023/04/04 00:02:55;;;;;;;10.40;2.80;;;;;;;11.53;36.06;103127.00;5067313;28;20072;-68
2023/04/04 00:05:21;;;;;;;7.87;2.33;;;;;;;11.50;36.69;103129.53;5083734;28;20097;-68
2023/04/04 00:07:46;;;;;;;10.53;2.40;;;;;;;12.05;36.08;103125.50;5087484;28;20032;-67
2023/04/04 00:10:12;;;;;;;5.07;2.10;;;;;;;11.93;36.65;103125.22;5087802;28;20095;-67
2023/04/04 00:12:37;;;;;;;9.33;2.90;;;;;;;12.11;35.37;103123.88;5087959;28;20383;-68
2023/04/04 00:15:06;;;;;;;7.63;2.33;;;;;;;11.06;37.07;103121.50;5088261;28;20020;-67
2023/04/04 00:17:31;;;;;;;4.57;2.40;;;;;;;11.55;36.51;103122.66;5086595;28;20039;-68
2023/04/04 00:19:57;;;;;;;4.33;2.30;;;;;;;11.50;36.56;103116.44;5086646;28;20024;-68
2023/04/04 00:22:23;;;;;;;5.43;2.67;;;;;;;11.70;36.92;103117.78;5089738;28;20066;-68
2023/04/04 00:24:48;;;;;;;6.17;2.70;;;;;;;12.09;35.89;103115.09;5091283;28;20031;-68
2023/04/04 00:27:14;;;;;;;6.70;2.63;;;;;;;11.61;36.36;103109.72;5092473;28;20016;-68
2023/04/04 00:29:39;;;;;;;6.10;2.80;;;;;;;11.81;37.11;103110.13;5092252;28;20111;-67
2023/04/04 00:32:05;;;;;;;13.23;2.63;;;;;;;11.76;35.90;103100.41;5090766;28;20077;-67
2023/04/04 00:34:30;;;;;;;5.73;2.60;;;;;;;11.87;37.31;103101.53;5091219;28;20028;-69
2023/04/04 00:36:56;;;;;;;6.97;3.10;;;;;;;11.35;36.95;103099.53;5091068;28;20015;-68
2023/04/04 00:39:22;;;;;;;9.00;2.80;;;;;;;11.12;36.97;103105.97;5088698;28;20042;-68
2023/04/04 00:41:48;;;;;;;8.03;3.13;;;;;;;11.60;37.19;103100.06;5090682;28;20387;-67
2023/04/04 00:44:14;;;;;;;7.07;2.77;;;;;;;11.04;37.84;103103.16;5090936;28;20020;-67
2023/04/04 00:46:40;;;;;;;8.07;2.70;;;;;;;10.85;37.85;103101.81;5090839;28;20035;-68
2023/04/04 00:49:05;;;;;;;7.30;2.77;;;;;;;11.02;37.73;103100.50;5090998;28;20047;-69
2023/04/04 00:51:31;;;;;;;9.90;3.27;;;;;;;11.09;38.37;103091.06;5090035;28;20024;-68
2023/04/04 00:53:56;;;;;;;5.77;2.90;;;;;;;10.70;39.04;103104.91;5092042;28;20024;-67
2023/04/04 00:56:22;;;;;;;10.23;3.30;;;;;;;10.62;39.08;103099.50;5090219;28;20419;-68
2023/04/04 00:58:48;;;;;;;6.53;3.13;;;;;;;10.56;38.52;103088.00;5091162;28;20032;-68
2023/04/04 01:01:13;;;;;;;9.80;3.10;;;;;;;10.31;38.82;103109.09;5075128;28;20048;-68
2023/04/04 01:03:40;;;;;;;4.17;2.87;;;;;;;10.32;39.14;103100.41;5085701;28;20496;-67
2023/04/04 01:06:07;;;;;;;5.80;2.60;;;;;;;10.45;39.18;103100.78;5091292;28;20024;-68
2023/04/04 01:08:35;;;;;;;9.00;3.07;;;;;;;10.08;39.11;103104.97;5091369;28;20509;-68
2023/04/04 01:11:01;;;;;;;4.83;3.13;;;;;;;10.79;38.43;103097.31;5088586;28;20131;-67
2023/04/04 01:13:27;;;;;;;6.10;2.87;;;;;;;10.11;39.02;103097.22;5090824;28;20107;-68
2023/04/04 01:15:53;;;;;;;9.90;3.07;;;;;;;11.09;38.61;103103.28;5091869;28;20532;-67
2023/04/04 01:18:21;;;;;;;7.40;3.10;;;;;;;11.14;37.60;103099.00;5091077;28;20035;-68
2023/04/04 01:21:09;;;;;;;5.63;2.87;;;;;;;10.48;39.08;103107.00;5090038;28;20020;-68
2023/04/04 01:24:05;;;;;;;7.93;2.87;;;;;;;10.69;38.37;103108.41;5087257;28;20495;-68
2023/04/04 01:26:31;;;;;;;7.13;3.13;;;;;;;10.62;38.39;103099.50;5070117;28;20109;-68
2023/04/04 01:28:57;;;;;;;6.40;3.10;;;;;;;11.17;37.51;103088.66;5088762;28;20383;-68
2023/04/04 01:31:40;;;;;;;5.77;3.23;;;;;;;10.50;39.19;103099.19;5087247;28;20016;-68
2023/04/04 01:34:24;;;;;;;;;;;;;;;10.40;38.59;103097.16;5089998;28;20032;-69
2023/04/04 01:37:02;;;;;;;6.23;2.80;;;;;;;10.37;38.89;103091.84;5090264;28;19931;-68
2023/04/04 01:39:34;;;;;;;3.60;2.60;;;;;;;9.97;39.23;103084.66;5090357;28;20073;-68
2023/04/04 01:42:01;;;;;;;6.07;2.92;;;;;;;10.11;39.93;103094.59;5089763;28;20032;-68
2023/04/04 01:44:27;;;;;;;8.40;3.60;;;;;;;10.60;38.60;103085.50;5090054;28;20467;-68
2023/04/04 01:46:55;;;;;;;7.63;3.10;;;;;;;10.31;38.62;103090.81;5088628;28;20111;-68
2023/04/04 01:49:22;;;;;;;7.37;3.20;;;;;;;9.87;39.98;103093.06;5089036;28;20056;-68
2023/04/04 01:51:48;;;;;;;8.80;3.40;;;;;;;8.94;41.06;103090.25;5090268;28;20031;-68
2023/04/04 01:54:15;;;;;;;4.33;2.53;;;;;;;9.78;40.06;103087.56;5090834;28;20024;-68
2023/04/04 01:56:40;;;;;;;3.97;2.93;;;;;;;9.71;40.20;103088.22;5086849;28;20489;-68
2023/04/04 01:59:06;;;;;;;5.50;3.27;;;;;;;9.71;40.60;103088.22;5079406;28;20059;-68
2023/04/04 02:01:32;;;;;;;4.73;2.70;;;;;;;9.16;41.24;103083.09;5091543;28;20417;-68
2023/04/04 02:03:57;;;;;;;6.83;3.00;;;;;;;9.63;40.90;103090.59;5090533;28;20024;-68
2023/04/04 02:06:23;;;;;;;4.80;2.63;;;;;;;9.99;39.53;103090.81;5090152;28;20827;-68
2023/04/04 02:08:48;;;;;;;5.00;2.30;;;;;;;9.56;40.36;103091.28;5091092;28;20070;-68
2023/04/04 02:11:13;;;;;;;7.40;3.50;;;;;;;10.07;39.91;103097.97;5090091;28;20598;-68
2023/04/04 02:13:43;;;;;;;9.17;3.50;;;;;;;9.35;41.02;103089.78;5089331;28;20068;-68
2023/04/04 02:16:08;;;;;;;5.07;3.10;;;;;;;9.38;40.38;103102.03;5086527;28;20115;-69
2023/04/04 02:18:35;;;;;;;7.33;3.67;;;;;;;9.53;40.53;103104.25;5089594;28;20020;-68
2023/04/04 02:21:00;;;;;;;9.97;3.60;;;;;;;9.23;40.65;103100.72;5089508;28;20028;-68
2023/04/04 02:23:26;;;;;;;5.83;3.00;;;;;;;9.38;40.99;103104.66;5088524;28;20085;-68
2023/04/04 02:25:51;;;;;;;6.13;2.73;;;;;;;9.36;40.47;103106.34;5087214;28;20024;-69
2023/04/04 02:28:17;;;;;;;8.20;3.70;;;;;;;10.05;39.79;103112.72;5071984;28;20053;-68
2023/04/04 02:30:43;;;;;;;7.23;3.20;;;;;;;9.72;40.72;103110.91;5089384;28;20035;-68
2023/04/04 02:33:08;;;;;;;7.90;3.20;;;;;;;9.59;40.47;103110.53;5090356;28;20026;-68
2023/04/04 02:35:34;;;;;;;7.93;3.57;;;;;;;9.28;40.68;103113.91;5091194;28;20550;-68
2023/04/04 02:37:59;;;;;;;6.30;3.10;;;;;;;9.46;40.46;103108.38;5090116;28;20036;-68
2023/04/04 02:40:25;;;;;;;7.33;3.13;;;;;;;9.20;41.03;103095.38;5087957;28;20031;-68
2023/04/04 02:42:50;;;;;;;5.60;3.33;;;;;;;9.29;41.00;103094.81;5089351;28;20110;-68
2023/04/04 02:45:16;;;;;;;8.97;3.67;;;;;;;9.55;40.43;103095.63;5087343;28;20126;-68
2023/04/04 02:47:48;;;;;;;7.80;3.90;;;;;;;9.78;40.50;103090.19;5090672;28;20066;-68
2023/04/04 02:50:13;;;;;;;8.00;3.35;;;;;;;9.70;40.38;103091.69;5088587;28;20048;-68
2023/04/04 02:52:39;;;;;;;5.63;3.27;;;;;;;9.44;40.97;103082.22;5086580;28;20032;-68
2023/04/04 02:55:06;;;;;;;11.70;3.67;;;;;;;9.43;41.08;103082.19;5088933;28;20080;-68
2023/04/04 02:57:31;;;;;;;7.17;3.47;;;;;;;9.60;40.89;103074.84;5088699;28;20395;-68
2023/04/04 02:59:57;;;;;;;8.30;3.90;;;;;;;9.28;41.24;103072.16;5089807;28;20036;-68
2023/04/04 03:02:23;;;;;;;14.83;4.93;;;;;;;9.75;42.28;103075.28;5086928;28;20064;-68
2023/04/04 03:04:49;;;;;;;10.03;4.80;;;;;;;9.95;41.43;103062.81;5089064;28;20115;-68
2023/04/04 03:07:14;;;;;;;8.00;3.97;;;;;;;9.91;39.99;103057.47;5087191;28;20173;-68
2023/04/04 03:09:43;;;;;;;6.87;3.60;;;;;;;9.87;41.60;103059.09;5087696;28;20040;-68
2023/04/04 03:12:09;;;;;;;8.03;3.87;;;;;;;9.61;41.17;103054.00;5087354;28;20400;-68
2023/04/04 03:14:34;;;;;;;9.17;3.80;;;;;;;9.36;41.46;103059.34;5087983;28;20035;-70
2023/04/04 03:17:00;;;;;;;5.60;3.60;;;;;;;9.59;42.22;103066.16;5088819;28;20032;-68
2023/04/04 03:19:25;;;;;;;7.57;4.23;;;;;;;9.78;41.32;103069.28;5088673;28;20500;-68
2023/04/04 03:21:51;;;;;;;8.80;3.70;;;;;;;9.62;40.57;103074.06;5086854;28;20040;-68
2023/04/04 03:24:16;;;;;;;11.27;4.00;;;;;;;9.57;40.47;103075.66;5088481;28;20032;-69
2023/04/04 03:26:41;;;;;;;6.13;3.93;;;;;;;9.41;41.33;103068.19;5087275;28;20541;-68
2023/04/04 03:29:07;;;;;;;8.57;4.17;;;;;;;9.10;42.88;103072.47;5088055;28;20024;-68
2023/04/04 03:31:32;;;;;;;7.47;3.53;;;;;;;9.22;41.24;103080.69;5088622;28;20034;-68
2023/04/04 03:33:59;;;;;;;6.40;3.43;;;;;;;8.80;42.66;103088.88;5087824;28;20568;-67
2023/04/04 03:36:25;;;;;;;8.27;4.20;;;;;;;8.58;42.62;103082.94;5088366;28;20544;-68
2023/04/04 03:38:50;;;;;;;7.87;3.80;;;;;;;8.75;42.61;103080.91;5088508;28;20118;-68
2023/04/04 03:41:16;;;;;;;6.87;3.77;;;;;;;9.05;42.18;103076.66;5088655;28;20126;-68
2023/04/04 03:43:42;;;;;;;7.57;3.73;;;;;;;8.77;42.52;103088.78;5089760;28;20024;-68
2023/04/04 03:46:07;;;;;;;7.47;3.13;;;;;;;8.97;42.09;103087.72;5087132;28;20117;-67
2023/04/04 03:48:33;;;;;;;7.50;4.03;;;;;;;9.15;42.77;103086.56;5084026;28;20452;-68
2023/04/04 03:50:59;;;;;;;6.27;3.73;;;;;;;9.40;40.95;103079.50;5068338;28;20036;-68
2023/04/04 03:53:25;;;;;;;6.93;4.00;;;;;;;8.77;42.50;103078.34;5068543;28;20033;-68
2023/04/04 03:55:52;;;;;;;11.13;4.27;;;;;;;9.51;41.29;103085.91;5052696;28;20035;-68
2023/04/04 03:58:19;;;;;;;6.30;3.80;;;;;;;8.76;42.13;103087.00;5057472;28;20377;-68
2023/04/04 04:00:44;;;;;;;10.77;4.50;;;;;;;8.95;42.75;103078.94;5076054;28;20028;-68
2023/04/04 04:03:10;;;;;;;7.30;3.77;;;;;;;8.98;41.67;103079.06;5055364;28;20032;-68
2023/04/04 04:05:35;;;;;;;6.00;3.80;;;;;;;8.29;43.35;103080.16;5074094;28;20040;-68
2023/04/04 04:08:01;;;;;;;7.30;4.27;;;;;;;8.95;42.48;103071.13;5057861;28;20077;-68
2023/04/04 04:10:26;;;;;;;7.90;4.20;;;;;;;9.12;41.52;103073.38;5074863;28;20498;-67
2023/04/04 04:12:52;;;;;;;6.70;4.07;;;;;;;9.04;42.13;103077.47;5075442;28;20031;-68
2023/04/04 04:15:17;;;;;;;8.60;4.47;;;;;;;8.82;42.73;103082.88;5073274;28;20554;-68
2023/04/04 04:17:43;;;;;;;8.37;3.60;;;;;;;8.56;42.39;103088.94;5072293;28;20097;-68
2023/04/04 04:20:09;;;;;;;7.90;4.47;;;;;;;9.07;41.87;103090.66;5075469;28;20039;-68
2023/04/04 04:22:35;;;;;;;7.87;3.77;;;;;;;8.96;41.61;103080.72;5057728;28;20484;-68
2023/04/04 04:25:00;;;;;;;8.20;3.70;;;;;;;9.03;42.93;103070.50;5074050;28;20391;-68
2023/04/04 04:27:25;;;;;;;8.67;3.77;;;;;;;9.23;40.95;103074.63;5056306;28;20040;-68
2023/04/04 04:29:51;;;;;;;8.23;4.40;;;;;;;9.13;40.99;103080.38;5057466;28;20480;-68
2023/04/04 04:32:17;;;;;;;10.50;4.43;;;;;;;8.93;41.53;103080.63;5054541;28;20028;-68
2023/04/04 04:34:42;;;;;;;6.63;3.97;;;;;;;8.75;42.26;103082.63;5075608;28;20028;-68
2023/04/04 04:37:08;;;;;;;6.63;3.80;;;;;;;9.48;40.78;103080.63;5068303;28;20094;-68
2023/04/04 04:39:34;;;;;;;8.90;4.10;;;;;;;8.80;41.80;103083.66;5057787;28;20040;-68
2023/04/04 04:41:59;;;;;;;9.07;4.20;;;;;;;9.12;41.49;103081.22;5057928;28;20040;-68
2023/04/04 04:44:25;;;;;;;10.10;3.77;;;;;;;8.89;43.00;103081.38;5072773;28;20036;-68
2023/04/04 04:46:50;;;;;;;12.43;3.60;;;;;;;9.23;41.75;103085.06;5074896;28;20040;-68
2023/04/04 04:49:16;;;;;;;6.17;4.17;;;;;;;9.77;40.97;103088.44;5071246;28;20114;-68
2023/04/04 04:51:41;;;;;;;8.57;4.27;;;;;;;9.26;41.44;103090.38;5055918;28;20032;-68
2023/04/04 04:54:07;;;;;;;6.87;4.20;;;;;;;9.22;41.96;103088.50;5075336;28;20103;-69
2023/04/04 04:56:32;;;;;;;8.53;4.40;;;;;;;9.52;41.61;103087.69;5056671;28;20032;-68
2023/04/04 04:59:00;;;;;;;7.13;4.10;;;;;;;9.74;41.19;103081.38;5056494;28;20093;-68
2023/04/04 05:01:26;;;;;;;13.67;4.90;;;;;;;9.53;40.75;103083.34;5055230;28;20034;-68
2023/04/04 05:03:51;;;;;;;8.23;4.13;;;;;;;9.16;41.59;103084.00;5074823;28;20028;-68
2023/04/04 05:06:16;;;;;;;8.10;4.20;;;;;;;8.91;41.75;103092.72;5055905;28;20495;-68
2023/04/04 05:08:42;;;;;;;8.13;4.57;;;;;;;9.09;42.09;103086.34;5051019;28;20479;-68
2023/04/04 05:11:07;;;;;;;15.40;4.73;;;;;;;9.17;41.75;103084.88;5070349;28;20108;-67
2023/04/04 05:13:33;;;;;;;10.97;4.90;;;;;;;9.65;40.68;103097.66;5052965;28;20082;-68
2023/04/04 05:16:01;;;;;;;8.57;4.50;;;;;;;9.07;41.65;103098.47;5047652;28;20032;-68
2023/04/04 05:18:27;;;;;;;11.60;4.80;;;;;;;8.88;41.01;103086.53;5053681;28;20028;-68
2023/04/04 05:20:55;;;;;;;12.77;4.40;;;;;;;8.52;42.66;103098.38;5070396;28;20384;-68
2023/04/04 05:23:21;;;;;;;10.53;4.60;;;;;;;9.11;42.69;103096.00;5071507;28;20480;-68
2023/04/04 05:25:49;;;;;;;6.40;4.00;;;;;;;8.72;42.12;103093.84;5050487;28;20048;-68
2023/04/04 05:28:15;;;;;;;7.60;4.03;;;;;;;8.80;42.43;103094.09;5070562;28;20032;-68
2023/04/04 05:30:40;;;;;;;7.43;4.37;;;;;;;8.67;42.51;103098.03;5052889;28;20038;-68
2023/04/04 05:33:06;;;;;;;8.73;4.83;;;;;;;9.20;42.31;103100.59;5052498;28;20396;-68
2023/04/04 05:35:31;;;;;;;13.13;5.20;;;;;;;9.25;41.23;103101.66;5052291;28;20404;-68
2023/04/04 05:37:57;;;;;;;11.10;4.30;;;;;;;9.47;42.20;103102.34;5046069;28;20024;-69
2023/04/04 05:40:23;;;;;;;9.33;3.90;;;;;;;8.88;41.93;103108.28;5069976;28;20028;-68
2023/04/04 05:42:58;;;;;;;12.00;4.70;;;;;;;8.77;41.96;103109.66;5070173;28;20369;-68
2023/04/04 05:45:25;;;;;;;7.57;4.47;;;;;;;8.92;42.49;103104.94;5051049;28;20395;-68
2023/04/04 05:47:50;;;;;;;8.30;4.67;;;;;;;8.91;41.79;103108.38;5070960;28;20024;-68
2023/04/04 05:50:16;;;;;;;8.60;4.60;;;;;;;8.81;41.66;103106.31;5084736;28;20392;-68
2023/04/04 05:52:42;;;;;;;9.47;4.00;;;;;;;8.80;41.33;103105.41;5091765;28;20054;-69
2023/04/04 05:55:07;;;;;;;10.83;4.40;;;;;;;8.90;41.76;103105.72;5087175;28;20085;-69
2023/04/04 05:57:33;;;;;;;7.67;4.17;;;;;;;8.86;41.53;103106.44;5090214;28;20499;-69
2023/04/04 05:59:58;;;;;;;8.70;4.30;;;;;;;9.42;40.39;103101.28;5090788;28;20019;-69
2023/04/04 06:02:24;;;;;;;10.17;4.57;;;;;;;9.92;39.88;103107.16;5088258;28;20039;-69
2023/04/04 06:04:49;;;;;;;10.13;4.53;;;;;;;10.12;39.74;103101.59;5086352;28;20031;-69
2023/04/04 06:07:15;;;;;;;7.33;4.43;;;;;;;9.69;42.87;103109.09;5088285;28;20118;-69
2023/04/04 06:09:41;;;;;;;10.13;4.33;;;;;;;9.68;39.98;103105.59;5090911;28;20032;-69
2023/04/04 06:12:08;;;;;;;10.53;4.67;;;;;;;10.02;40.25;103103.06;5087573;28;20101;-69
2023/04/04 06:14:36;;;;;;;9.13;5.23;;;;;;;9.97;40.06;103100.34;5088283;28;20511;-69
2023/04/04 06:17:03;;;;;;;8.13;4.60;;;;;;;9.94;40.30;103102.84;5090464;28;20161;-69
2023/04/04 06:19:29;;;;;;;8.07;4.47;;;;;;;10.09;39.57;103101.53;5087074;28;20059;-69
2023/04/04 06:21:54;;;;;;;6.73;4.07;;;;;;;9.99;39.77;103096.03;5090193;28;20501;-69
2023/04/04 06:24:19;;;;;;;5.63;4.20;;;;;;;9.42;40.12;103096.94;5090074;28;20027;-69
2023/04/04 06:26:45;;;;;;;7.73;5.00;;;;;;;9.67;39.88;103109.03;5089603;28;20028;-69
2023/04/04 06:29:11;;;;;;;17.00;5.67;;;;;;;10.22;39.80;103102.75;5085534;28;20043;-69
2023/04/04 06:31:36;;;;;;;9.67;4.77;;;;;;;10.69;39.47;103104.03;5085196;28;20034;-69
2023/04/04 06:34:02;;;;;;;13.53;4.60;;;;;;;9.75;40.29;103105.75;5088898;28;20036;-69
2023/04/04 06:36:27;;;;;;;9.00;4.50;;;;;;;10.45;38.82;103106.88;5087962;28;20032;-69
2023/04/04 06:38:52;;;;;;;12.00;5.00;;;;;;;10.69;39.27;103101.44;5082248;28;20049;-69
2023/04/04 06:41:18;;;;;;;6.70;4.17;;;;;;;10.79;39.42;103101.66;5085662;28;20032;-69
2023/04/04 06:43:45;;;;;;;8.17;4.27;;;;;;;10.90;39.70;103105.44;5089232;28;20030;-69
2023/04/04 06:46:11;;;;;;;11.07;4.83;;;;;;;10.73;38.62;103101.50;5088854;28;20458;-69
2023/04/04 06:48:36;;;;;;;13.10;5.47;;;;;;;10.76;38.77;103101.59;5088802;28;20055;-69
2023/04/04 06:51:05;;;;;;;9.63;4.80;;;;;;;10.94;38.00;103104.66;5089748;28;20494;-69
2023/04/04 06:53:31;;;;;;;12.23;5.87;;;;;;;10.74;38.27;103098.03;5089241;28;20490;-69
2023/04/04 06:55:57;;;;;;;9.43;4.23;;;;;;;10.93;38.28;103108.13;5090496;28;20036;-69
2023/04/04 06:58:23;;;;;;;13.87;6.00;;;;;;;10.94;38.26;103112.50;5089170;28;20028;-69
2023/04/04 07:00:49;;;;;;;11.00;4.70;;;;;;;11.09;37.71;103116.38;5090099;28;20107;-69
2023/04/04 07:03:14;;;;;;;10.37;4.57;;;;;;;10.79;38.50;103117.38;5088900;28;20119;-69
2023/04/04 07:05:40;;;;;;;9.80;4.03;;;;;;;11.07;38.63;103123.28;5089659;28;20073;-69
2023/04/04 07:08:06;;;;;;;7.93;4.00;;;;;;;10.94;38.20;103112.50;5090288;28;20046;-69
2023/04/04 07:10:31;;;;;;;10.20;5.10;;;;;;;11.00;38.55;103111.78;5088948;28;20089;-69
2023/04/04 07:12:57;;;;;;;8.17;4.17;;;;;;;11.15;38.71;103116.50;5088382;28;20122;-69
2023/04/04 07:15:22;;;;;;;11.17;4.50;;;;;;;11.19;38.34;103107.88;5088367;28;20028;-69
2023/04/04 07:17:48;;;;;;;12.73;4.70;;;;;;;11.20;38.38;103122.75;5088738;28;20042;-69
2023/04/04 07:20:13;;;;;;;8.80;4.70;;;;;;;11.28;38.29;103108.09;5087509;28;20093;-69
2023/04/04 07:22:39;;;;;;;13.97;4.50;;;;;;;11.35;39.06;103110.00;5090221;28;20031;-69
2023/04/04 07:25:06;;;;;;;9.43;4.93;;;;;;;11.58;37.97;103113.97;5089764;28;20077;-69
2023/04/04 07:27:31;;;;;;;10.33;4.47;;;;;;;11.19;37.85;103113.09;5089174;28;20039;-69
2023/04/04 07:29:56;;;;;;;8.93;4.83;;;;;;;11.96;37.89;103120.06;5088290;28;20020;-69
2023/04/04 07:32:22;;;;;;;6.97;4.13;;;;;;;13.19;36.08;103107.41;5088112;28;20119;-69
2023/04/04 07:34:48;;;;;;;9.07;4.43;;;;;;;13.08;35.97;103117.75;5087844;28;20078;-70
2023/04/04 07:37:14;;;;;;;10.47;4.40;;;;;;;14.75;33.13;103120.75;5089339;28;20101;-69
2023/04/04 07:39:39;;;;;;;7.00;3.87;;;;;;;16.07;31.53;103113.63;5088699;28;20059;-69
2023/04/04 07:42:05;;;;;;;11.97;4.80;;;;;;;16.91;30.33;103102.34;5088494;28;20024;-70
2023/04/04 07:44:30;;;;;;;6.47;3.33;;;;;;;17.37;28.67;103098.75;5088651;28;20027;-70
2023/04/04 07:46:56;;;;;;;7.97;3.40;;;;;;;18.49;26.56;103096.44;5087635;28;20031;-69
2023/04/04 07:49:21;;;;;;;7.40;3.50;;;;;;;18.98;26.44;103092.56;5079147;28;20450;-70
2023/04/04 07:51:47;;;;;;;7.73;3.20;;;;;;;18.71;26.74;103094.53;5051535;28;20489;-69
2023/04/04 07:54:13;;;;;;;5.87;2.83;;;;;;;18.93;26.33;103087.31;5068719;28;20335;-70
2023/04/04 07:56:38;;;;;;;5.93;3.07;;;;;;;19.66;25.15;103087.38;5069540;28;20089;-70
2023/04/04 07:59:04;;;;;;;5.83;3.47;;;;;;;19.91;25.31;103088.88;5069026;28;20035;-69
2023/04/04 08:01:29;;;;;;;15.00;3.23;;;;;;;21.29;22.72;103090.16;5050714;28;20037;-70
2023/04/04 08:03:55;;;;;;;9.27;3.25;;;;;;;20.67;23.81;103088.59;5051559;28;20026;-70
2023/04/04 08:06:21;;;;;;;8.48;3.20;;;;;;;21.73;22.77;103088.41;5051104;28;20032;-70
2023/04/04 08:08:46;;;;;;;6.53;3.47;;;;;;;20.44;23.76;103081.91;5068798;28;20493;-69
2023/04/04 08:11:12;;;;;;;5.18;3.00;;;;;;;21.00;21.99;103078.31;5068901;28;20066;-70
2023/04/04 08:13:38;;;;;;;6.38;3.20;;;;;;;21.91;21.53;103086.25;5069315;28;20021;-70
2023/04/04 08:16:04;;;;;;;7.38;3.55;;;;;;;21.15;21.93;103085.97;5068412;28;20078;-70
2023/04/04 08:18:31;;;;;;;6.18;2.40;;;;;;;20.55;22.18;103086.13;5069303;28;20059;-70
2023/04/04 08:20:56;;;;;;;5.90;2.95;;;;;;;21.11;22.69;103089.59;5051299;28;20021;-69
2023/04/04 08:23:22;;;;;;;6.40;2.97;;;;;;;21.96;21.76;103085.25;5050161;28;20032;-68
2023/04/04 08:25:47;;;;;;;7.20;2.90;;;;;;;21.40;21.58;103093.47;5069260;28;20485;-69
2023/04/04 08:28:14;;;;;;;6.53;2.40;;;;;;;22.73;19.40;103084.34;5050605;28;20029;-70
2023/04/04 08:30:39;;;;;;;6.60;2.85;;;;;;;21.91;21.30;103086.25;5068700;28;20075;-69
2023/04/04 08:33:05;;;;;;;7.00;2.55;;;;;;;21.90;19.68;103092.47;5068553;28;20052;-68
2023/04/04 08:35:30;;;;;;;4.22;2.58;;;;;;;21.13;19.16;103082.50;5069424;28;20469;-68
2023/04/04 08:37:56;;;;;;;4.10;2.38;;;;;;;21.20;20.67;103085.91;5068371;28;20039;-69
2023/04/04 08:40:21;;;;;;;3.83;2.05;;;;;;;20.23;20.26;103083.09;5068701;28;20024;-68
2023/04/04 08:42:50;;;;;;;6.03;2.28;;;;;;;22.31;18.13;103074.66;5052823;28;20032;-69
2023/04/04 08:45:18;;;;;;;6.30;2.80;;;;;;;21.48;19.68;103083.56;5053701;28;20392;-69
2023/04/04 08:47:47;;;;;;;11.10;3.80;;;;;;;22.67;18.88;103066.72;5072715;28;20029;-68
2023/04/04 08:50:13;;;;;;;4.60;2.63;;;;;;;22.15;19.43;103074.19;5071285;28;20454;-69
2023/04/04 08:52:40;;;;;;;6.13;2.80;;;;;;;21.60;18.49;103077.16;5072766;28;20028;-68
2023/04/04 08:55:06;;;;;;;4.88;2.63;;;;;;;;;;5053890;28;20487;-68
2023/04/04 08:57:32;;;;;;;5.20;2.40;;;;;;;23.03;17.32;103063.97;5053828;28;20079;-69
2023/04/04 08:59:57;;;;;;;4.30;2.00;;;;;;;22.29;18.39;103065.84;5054472;28;20530;-69
2023/04/04 09:02:32;;;;;;;4.18;2.30;;;;;;;21.65;19.31;103077.03;5072095;28;20323;-69
2023/04/04 09:05:00;;;;;;;8.32;2.60;;;;;;;22.69;19.83;103075.53;5053777;28;20468;-69
2023/04/04 09:07:27;;;;;;;5.47;2.83;;;;;;;20.83;18.65;103076.81;5054011;28;20051;-69
2023/04/04 09:09:53;;;;;;;5.03;2.15;;;;;;;22.10;18.12;103074.25;5072273;28;20020;-69
2023/04/04 09:12:21;;;;;;;4.05;2.50;;;;;;;22.45;18.27;103071.69;5053034;28;20028;-69
2023/04/04 09:14:49;;;;;;;4.10;2.42;;;;;;;22.64;17.47;103083.66;5072301;28;20491;-68
2023/04/04 09:17:14;;;;;;;3.83;2.45;;;;;;;20.88;20.13;103079.38;5053782;28;20032;-68
2023/04/04 09:19:40;;;;;;;4.57;2.83;;;;;;;22.94;19.25;103075.75;5071485;28;20065;-69
2023/04/04 09:22:07;;;;;;;4.28;2.38;;;;;;;21.53;18.98;103083.53;5053708;28;20051;-68
2023/04/04 09:24:38;;;;;;;4.40;2.55;;;;;;;22.00;18.43;103086.06;5072199;28;20090;-68
2023/04/04 09:27:04;;;;;;;4.10;2.70;;;;;;;22.39;18.74;103078.06;5070840;28;20048;-69
2023/04/04 09:29:29;;;;;;;6.57;3.00;;;;;;;20.98;20.14;103082.78;5054180;28;20514;-68
2023/04/04 09:31:55;;;;;;;7.10;3.28;;;;;;;21.94;19.70;103075.53;5071880;28;20026;-69
2023/04/04 09:34:20;;;;;;;8.80;2.75;;;;;;;22.96;18.86;103068.59;5070648;28;20036;-68
2023/04/04 09:36:46;;;;;;;5.15;2.85;;;;;;;22.44;19.08;103077.97;5071805;28;20035;-69
2023/04/04 09:39:15;;;;;;;8.25;3.10;;;;;;;23.18;18.69;103074.25;5071243;28;20028;-68
2023/04/04 09:41:40;;;;;;;7.38;2.50;;;;;;;22.28;18.54;103074.75;5071189;28;20059;-69
2023/04/04 09:44:06;;;;;;;6.75;3.20;;;;;;;22.51;18.62;103072.41;5071309;28;20048;-68
2023/04/04 09:46:35;;;;;;;5.32;2.22;;;;;;;21.29;19.44;103080.38;5070973;28;20036;-69
2023/04/04 09:49:01;;;;;;;3.65;2.38;;;;;;;21.99;19.25;103078.97;5064631;28;20168;-68
2023/04/04 09:51:41;;;;;;;3.90;2.03;;;;;;;21.80;19.29;103079.41;5091479;28;20473;-69
2023/04/04 09:54:09;;;;;;;5.68;2.17;;;;;;;21.73;18.44;103072.44;5090571;28;20407;-69
2023/04/04 09:56:38;;;;;;;6.28;2.45;;;;;;;22.90;18.39;103057.22;5090506;28;20035;-69
2023/04/04 09:59:06;;;;;;;3.33;1.98;;;;;;;22.26;18.91;103066.78;5090458;28;20030;-69
2023/04/04 10:01:32;;;;;;;4.30;2.30;;;;;;;22.45;18.72;103059.25;5089706;28;20107;-68
2023/04/04 10:03:58;;;;;;;5.53;2.40;;;;;;;24.01;18.14;103064.72;5091704;28;20024;-68
2023/04/04 10:06:24;;;;;;;6.22;2.33;;;;;;;23.52;18.24;103059.94;5091096;28;20421;-69
2023/04/04 10:08:50;;;;;;;5.70;2.63;;;;;;;21.64;18.96;103077.97;5090732;28;20103;-68
2023/04/04 10:11:31;;;;;;;6.30;2.47;;;;;;;22.05;18.41;103068.19;5089581;28;20028;-68
2023/04/04 10:13:57;;;;;;;7.70;3.08;;;;;;;22.56;19.06;103064.31;5091454;28;20518;-68
2023/04/04 10:16:24;;;;;;;4.65;2.35;;;;;;;22.00;20.00;103059.44;5090253;28;20096;-69
2023/04/04 10:18:51;;;;;;;5.63;2.55;;;;;;;21.30;19.22;103065.31;5091332;28;20445;-68
2023/04/04 10:21:16;;;;;;;5.05;2.33;;;;;;;20.90;20.29;103052.81;5089553;28;20028;-69
2023/04/04 10:23:45;;;;;;;5.30;2.42;;;;;;;21.17;19.49;103062.91;5088990;28;20449;-68
2023/04/04 10:26:11;;;;;;;8.90;2.80;;;;;;;20.84;20.88;103059.09;5090761;28;20020;-68
2023/04/04 10:28:37;;;;;;;4.03;2.13;;;;;;;20.86;19.15;103056.44;5090581;28;20035;-69
2023/04/04 10:31:18;;;;;;;4.95;2.88;;;;;;;22.11;19.21;103062.72;5090967;28;20415;-69
2023/04/04 10:33:51;;;;;;;7.75;2.50;;;;;;;22.47;18.65;103043.25;5089718;28;20499;-69
2023/04/04 10:36:20;;;;;;;;;;;;;;;22.30;19.83;103040.97;5090186;28;20028;-69
2023/04/04 10:38:55;;;;;;;4.32;2.30;;;;;;;21.49;20.13;103052.53;5089791;28;19912;-69
2023/04/04 10:41:22;;;;;;;4.45;2.63;;;;;;;20.88;19.82;103054.59;5089528;28;20024;-68
2023/04/04 10:43:49;;;;;;;6.28;2.35;;;;;;;22.88;19.42;103039.47;5088823;28;20034;-69
2023/04/04 10:46:18;;;;;;;4.13;2.33;;;;;;;21.42;20.77;103041.13;5089383;28;20438;-68
2023/04/04 10:48:44;;;;;;;6.28;2.30;;;;;;;;;;5089019;28;20572;-68
2023/04/04 10:51:10;;;;;;;6.68;2.13;;;;;;;22.70;18.85;103039.97;5088508;28;20036;-69
2023/04/04 10:53:38;;;;;;;4.93;2.50;;;;;;;23.57;17.44;103032.25;5089268;28;20463;-69
2023/04/04 10:56:05;;;;;;;4.75;2.42;;;;;;;21.70;19.30;103037.91;5089096;28;20020;-68
2023/04/04 10:58:31;;;;;;;7.88;2.80;;;;;;;21.64;20.41;103038.94;5089851;28;20080;-69
2023/04/04 11:00:56;;;;;;;6.53;2.70;;;;;;;21.67;20.06;103033.53;5089186;28;20407;-69
2023/04/04 11:03:24;;;;;;;4.72;2.60;;;;;;;22.06;19.76;103022.00;5088897;28;20110;-69
2023/04/04 11:05:50;;;;;;;4.60;2.42;;;;;;;23.68;18.09;103014.94;5089157;28;20510;-68
2023/04/04 11:08:18;;;;;;;4.95;2.80;;;;;;;23.14;18.48;103013.91;5089789;28;20069;-69
2023/04/04 11:10:47;;;;;;;5.70;3.63;;;;;;;22.28;19.65;103016.16;5090290;28;20024;-68
2023/04/04 11:13:39;;;;;;;9.82;2.03;;;;;;;22.53;19.18;103011.97;5089211;28;20055;-68
2023/04/04 11:16:08;;;;;;;4.18;2.17;;;;;;;22.24;18.37;103004.69;5086113;28;20044;-68
2023/04/04 11:18:44;;;;;;;5.93;2.92;;;;;;;23.60;18.57;103000.97;5089656;28;20055;-69
2023/04/04 11:21:22;;;;;;;5.38;2.85;;;;;;;22.79;17.91;103007.75;5088421;28;20078;-68
2023/04/04 11:23:48;;;;;;;4.15;2.75;;;;;;;21.67;19.05;103004.25;5088902;28;20027;-69
2023/04/04 11:26:17;;;;;;;5.65;3.35;;;;;;;21.59;19.68;103005.34;5089012;28;20081;-68